Time;durP1;ratioP1;P1;durP2;ratioP2;P2;SDS_P1;SDS_P2;PMS_P1;PMS_P2;Temp;Humidity;BMP_temperature;BMP_pressure;BME280_temperature;BME280_humidity;BME280_pressure;Samples;Min_cycle;Max_cycle;Signal;HPM_P1;HPM_P2
2021/08/11 00:00:06;;;;;;;6.77;4.70;;;;;;;;;;2132425;27;20051;-44
2021/08/11 00:01:07;;;;;;;6.80;4.65;;;;;;;;;;2129829;27;20487;-43
2021/08/11 00:02:08;;;;;;;8.77;5.10;;;;;;;;;;2132204;27;20731;-43
2021/08/11 00:03:09;;;;;;;8.98;5.47;;;;;;;;;;2131870;27;20034;-47
2021/08/11 00:04:11;;;;;;;7.35;4.85;;;;;;;;;;2129362;27;20054;-48
2021/08/11 00:05:12;;;;;;;8.48;5.22;;;;;;;;;;2132440;27;20043;-43
2021/08/11 00:06:13;;;;;;;11.23;5.93;;;;;;;;;;2132037;27;20051;-46
2021/08/11 00:07:14;;;;;;;7.70;5.30;;;;;;;;;;2130261;27;20035;-43
2021/08/11 00:08:15;;;;;;;8.20;5.13;;;;;;;;;;2132501;27;20168;-44
2021/08/11 00:09:16;;;;;;;12.43;6.32;;;;;;;;;;2131581;27;20120;-44
2021/08/11 00:10:18;;;;;;;8.40;5.53;;;;;;;;;;2130879;27;20425;-43
2021/08/11 00:11:19;;;;;;;8.88;5.53;;;;;;;;;;2132307;27;21027;-43
2021/08/11 00:12:20;;;;;;;9.20;6.03;;;;;;;;;;2130552;27;20043;-43
2021/08/11 00:13:21;;;;;;;9.00;6.20;;;;;;;;;;2130866;27;20176;-43
2021/08/11 00:14:22;;;;;;;10.40;6.00;;;;;;;;;;2132282;27;20487;-45
2021/08/11 00:15:23;;;;;;;8.00;5.53;;;;;;;;;;2130109;27;20066;-43
2021/08/11 00:16:24;;;;;;;8.23;5.27;;;;;;;;;;2131807;27;20049;-45
2021/08/11 00:17:25;;;;;;;7.03;4.75;;;;;;;;;;2132356;27;20051;-43
2021/08/11 00:18:26;;;;;;;11.68;5.55;;;;;;;;;;2130183;27;20563;-44
2021/08/11 00:19:27;;;;;;;6.55;4.88;;;;;;;;;;2131963;27;20053;-45
2021/08/11 00:20:28;;;;;;;5.47;4.33;;;;;;;;;;2132189;27;20046;-43
2021/08/11 00:21:29;;;;;;;7.22;4.80;;;;;;;;;;2130065;27;20043;-43
2021/08/11 00:22:30;;;;;;;7.73;5.00;;;;;;;;;;2131779;27;20050;-44
2021/08/11 00:23:31;;;;;;;6.68;4.60;;;;;;;;;;2132098;27;20321;-44
2021/08/11 00:24:32;;;;;;;6.00;4.67;;;;;;;;;;2130060;27;20043;-43
2021/08/11 00:25:34;;;;;;;6.45;4.65;;;;;;;;;;2131534;27;20054;-43
2021/08/11 00:26:35;;;;;;;;;;;;;;;;;;2132625;27;20077;-46
2021/08/11 00:27:36;;;;;;;6.88;4.38;;;;;;;;;;2129667;27;19919;-45
2021/08/11 00:28:37;;;;;;;6.07;4.23;;;;;;;;;;2132274;27;20514;-44
2021/08/11 00:29:38;;;;;;;6.55;4.65;;;;;;;;;;2132157;27;20098;-43
2021/08/11 00:30:39;;;;;;;5.53;3.95;;;;;;;;;;2129937;27;20142;-45
2021/08/11 00:31:40;;;;;;;5.30;4.50;;;;;;;;;;2132165;27;20050;-43
2021/08/11 00:32:41;;;;;;;6.00;4.65;;;;;;;;;;2132043;27;20437;-43
2021/08/11 00:33:42;;;;;;;6.33;4.77;;;;;;;;;;2129836;27;20046;-44
2021/08/11 00:34:43;;;;;;;7.05;3.97;;;;;;;;;;2132169;27;20054;-43
2021/08/11 00:35:44;;;;;;;7.60;4.90;;;;;;;;;;2132351;27;20471;-48
2021/08/11 00:36:45;;;;;;;6.95;4.22;;;;;;;;;;2129606;27;20402;-43
2021/08/11 00:37:46;;;;;;;9.23;4.80;;;;;;;;;;2132118;27;20043;-45
2021/08/11 00:38:46;;;;;;;4.60;4.20;;;;;;;;;;2130317;27;20075;-44
2021/08/11 00:39:48;;;;;;;5.20;4.70;;;;;;;;;;2130242;27;20121;-44
2021/08/11 00:40:49;;;;;;;5.30;4.60;;;;;;;;;;2132233;27;20047;-44
2021/08/11 00:41:50;;;;;;;6.22;4.50;;;;;;;;;;2131572;27;20479;-45
2021/08/11 00:42:52;;;;;;;7.68;4.78;;;;;;;;;;2130095;27;20053;-45
2021/08/11 00:43:54;;;;;;;5.70;4.45;;;;;;;;;;2132029;27;20065;-46
2021/08/11 00:44:54;;;;;;;7.47;4.50;;;;;;;;;;2130884;27;20038;-45
2021/08/11 00:45:56;;;;;;;10.90;4.97;;;;;;;;;;2130893;27;20046;-45
2021/08/11 00:46:57;;;;;;;5.85;4.82;;;;;;;;;;2132213;27;20278;-45
2021/08/11 00:47:58;;;;;;;7.82;5.07;;;;;;;;;;2129866;27;20039;-44
2021/08/11 00:48:59;;;;;;;7.13;5.22;;;;;;;;;;2131766;27;20122;-45
2021/08/11 00:50:00;;;;;;;10.70;5.63;;;;;;;;;;2132123;27;20125;-45
2021/08/11 00:51:02;;;;;;;7.45;5.75;;;;;;;;;;2130129;27;20073;-44
2021/08/11 00:52:05;;;;;;;9.43;5.78;;;;;;;;;;2131717;27;20126;-44
2021/08/11 00:53:07;;;;;;;12.73;5.95;;;;;;;;;;2122294;27;20406;-46
2021/08/11 00:54:09;;;;;;;9.02;5.85;;;;;;;;;;2126407;27;20049;-44
2021/08/11 00:55:10;;;;;;;8.40;5.47;;;;;;;;;;2130874;27;20121;-44
2021/08/11 00:56:13;;;;;;;7.57;5.45;;;;;;;;;;2132019;27;20559;-45
2021/08/11 00:57:14;;;;;;;11.07;6.90;;;;;;;;;;2128963;27;20039;-46
2021/08/11 00:58:15;;;;;;;;;;;;;;;;;;2132344;27;20099;-44
2021/08/11 00:59:17;;;;;;;11.75;7.20;;;;;;;;;;2131997;27;20366;-44
2021/08/11 01:00:19;;;;;;;11.65;7.03;;;;;;;;;;2129699;27;20046;-46
2021/08/11 01:01:21;;;;;;;11.27;6.35;;;;;;;;;;2131861;27;20043;-47
2021/08/11 01:02:23;;;;;;;11.27;6.78;;;;;;;;;;2132029;27;20051;-45
2021/08/11 01:03:25;;;;;;;7.53;5.90;;;;;;;;;;2129503;27;20046;-44
2021/08/11 01:04:26;;;;;;;9.63;5.88;;;;;;;;;;2132041;27;20062;-45
2021/08/11 01:05:28;;;;;;;6.77;5.43;;;;;;;;;;2131522;27;20042;-45
2021/08/11 01:06:30;;;;;;;7.45;5.50;;;;;;;;;;2129606;27;20378;-44
2021/08/11 01:07:34;;;;;;;7.85;5.80;;;;;;;;;;2131937;27;20050;-47
2021/08/11 01:08:35;;;;;;;12.43;5.32;;;;;;;;;;2131239;27;20505;-45
2021/08/11 01:09:37;;;;;;;8.00;5.40;;;;;;;;;;2130346;27;20521;-46
2021/08/11 01:10:38;;;;;;;18.77;6.72;;;;;;;;;;2131856;27;20118;-44
2021/08/11 01:11:42;;;;;;;8.85;6.07;;;;;;;;;;2130320;27;20477;-45
2021/08/11 01:12:43;;;;;;;21.35;6.43;;;;;;;;;;2130678;27;20133;-45
2021/08/11 01:13:45;;;;;;;8.88;5.88;;;;;;;;;;2132040;27;20133;-44
2021/08/11 01:14:46;;;;;;;8.77;5.35;;;;;;;;;;2129884;27;20077;-48
2021/08/11 01:15:48;;;;;;;10.20;5.85;;;;;;;;;;2130680;27;20087;-46
2021/08/11 01:16:49;;;;;;;11.60;5.57;;;;;;;;;;2131864;27;20061;-44
2021/08/11 01:17:50;;;;;;;8.27;6.03;;;;;;;;;;2129730;27;20069;-44
2021/08/11 01:18:51;;;;;;;12.18;5.90;;;;;;;;;;2131633;27;20034;-46
2021/08/11 01:19:52;;;;;;;10.10;6.60;;;;;;;;;;2131824;27;20043;-46
2021/08/11 01:20:56;;;;;;;7.25;5.10;;;;;;;;;;2129692;27;20046;-46
2021/08/11 01:21:59;;;;;;;7.05;5.38;;;;;;;;;;2131496;27;20086;-48
2021/08/11 01:23:07;;;;;;;7.10;5.28;;;;;;;;;;2131789;27;20179;-45
2021/08/11 01:24:12;;;;;;;11.75;6.00;;;;;;;;;;2129427;27;20041;-46
2021/08/11 01:25:15;;;;;;;9.82;5.70;;;;;;;;;;2132115;27;20129;-45
2021/08/11 01:26:19;;;;;;;9.82;4.97;;;;;;;;;;2131271;27;20042;-45
2021/08/11 01:27:35;;;;;;;9.52;5.45;;;;;;;;;;2129507;27;20138;-45
2021/08/11 01:28:51;;;;;;;9.52;5.43;;;;;;;;;;2129233;27;20447;-45
2021/08/11 01:30:01;;;;;;;8.60;5.50;;;;;;;;;;2129598;27;20041;-45
2021/08/11 01:31:08;;;;;;;8.70;5.47;;;;;;;;;;2123166;28;20067;-44
2021/08/11 01:32:14;;;;;;;6.40;4.53;;;;;;;;;;2122985;27;20043;-44
2021/08/11 01:33:24;;;;;;;7.35;5.20;;;;;;;;;;2129782;27;20474;-44
2021/08/11 01:34:28;;;;;;;7.55;5.03;;;;;;;;;;2131908;27;20042;-44
2021/08/11 01:35:30;;;;;;;9.13;4.85;;;;;;;;;;2129487;27;20130;-45
2021/08/11 01:36:35;;;;;;;6.30;4.90;;;;;;;;;;2130917;27;20170;-44
2021/08/11 01:37:36;;;;;;;5.85;4.75;;;;;;;;;;2131106;27;20042;-44
2021/08/11 01:38:39;;;;;;;7.20;4.68;;;;;;;;;;2129727;27;20050;-46
2021/08/11 01:39:42;;;;;;;7.07;5.18;;;;;;;;;;2131459;27;20491;-44
2021/08/11 01:40:47;;;;;;;6.30;5.00;;;;;;;;;;2131744;27;20463;-44
2021/08/11 01:41:52;;;;;;;6.20;4.72;;;;;;;;;;2129441;27;20126;-44
2021/08/11 01:42:54;;;;;;;6.50;4.95;;;;;;;;;;2131851;27;20125;-45
2021/08/11 01:43:56;;;;;;;5.25;4.50;;;;;;;;;;2131756;27;20187;-44
2021/08/11 01:45:01;;;;;;;8.10;4.82;;;;;;;;;;2129341;27;20038;-47
2021/08/11 01:46:04;;;;;;;5.88;5.13;;;;;;;;;;2131675;27;20494;-44
2021/08/11 01:47:07;;;;;;;11.00;4.78;;;;;;;;;;2131237;27;20388;-45
2021/08/11 01:48:10;;;;;;;5.50;4.95;;;;;;;;;;2129654;27;20137;-45
2021/08/11 01:49:14;;;;;;;9.15;5.00;;;;;;;;;;2131594;27;20467;-46
2021/08/11 01:50:17;;;;;;;8.00;4.90;;;;;;;;;;2129881;27;20043;-44
2021/08/11 01:51:18;;;;;;;5.35;4.80;;;;;;;;;;2131179;27;20187;-44
2021/08/11 01:52:19;;;;;;;8.52;5.65;;;;;;;;;;2128693;27;20069;-44
2021/08/11 01:53:21;;;;;;;9.23;5.13;;;;;;;;;;2124795;27;20043;-44
2021/08/11 01:54:24;;;;;;;9.05;4.38;;;;;;;;;;2130358;27;20541;-44
2021/08/11 01:55:25;;;;;;;6.28;5.07;;;;;;;;;;2131670;27;20129;-44
2021/08/11 01:56:26;;;;;;;6.77;5.03;;;;;;;;;;2128425;27;20479;-44
2021/08/11 01:57:27;;;;;;;5.43;4.40;;;;;;;;;;2131372;27;20283;-47
2021/08/11 01:58:29;;;;;;;7.00;4.57;;;;;;;;;;2131695;27;20386;-44
2021/08/11 01:59:30;;;;;;;5.60;4.63;;;;;;;;;;2129386;27;20125;-45
2021/08/11 02:00:31;;;;;;;5.33;4.57;;;;;;;;;;2131432;27;20129;-45
2021/08/11 02:01:32;;;;;;;;;;;;;;;;;;2132072;27;20053;-48
2021/08/11 02:02:36;;;;;;;5.32;4.60;;;;;;;;;;2129042;27;20038;-45
2021/08/11 02:03:37;;;;;;;5.93;5.15;;;;;;;;;;2131401;27;20518;-45
2021/08/11 02:04:39;;;;;;;5.93;5.17;;;;;;;;;;2131591;27;20071;-44
2021/08/11 02:05:40;;;;;;;6.28;4.85;;;;;;;;;;2129043;27;20357;-45
2021/08/11 02:06:42;;;;;;;6.63;5.10;;;;;;;;;;2131630;27;20088;-44
2021/08/11 02:07:44;;;;;;;7.93;4.90;;;;;;;;;;2131438;27;20537;-44
2021/08/11 02:08:45;;;;;;;6.63;5.32;;;;;;;;;;2129173;27;20479;-45
2021/08/11 02:09:46;;;;;;;6.00;4.82;;;;;;;;;;2131506;27;20113;-46
2021/08/11 02:10:48;;;;;;;5.47;4.82;;;;;;;;;;2131067;27;20042;-44
2021/08/11 02:11:49;;;;;;;6.18;5.05;;;;;;;;;;2129381;27;20428;-45
2021/08/11 02:12:50;;;;;;;6.88;5.40;;;;;;;;;;2131382;27;20137;-45
2021/08/11 02:13:51;;;;;;;5.22;4.65;;;;;;;;;;2130843;27;20074;-44
2021/08/11 02:14:53;;;;;;;7.28;5.32;;;;;;;;;;2130001;27;20043;-44
2021/08/11 02:15:54;;;;;;;7.85;5.90;;;;;;;;;;2131502;27;20046;-45
2021/08/11 02:16:55;;;;;;;7.32;5.63;;;;;;;;;;2130069;27;20407;-46
2021/08/11 02:17:56;;;;;;;8.35;5.60;;;;;;;;;;2130559;27;20118;-44
2021/08/11 02:18:58;;;;;;;14.00;5.63;;;;;;;;;;2131560;27;20518;-44
2021/08/11 02:19:59;;;;;;;6.15;5.10;;;;;;;;;;2129466;27;20365;-44
2021/08/11 02:21:00;;;;;;;;;;;;;;;;;;2131413;27;20599;-45
2021/08/11 02:22:01;;;;;;;7.85;6.15;;;;;;;;;;2131469;27;19922;-45
2021/08/11 02:23:02;;;;;;;7.57;6.35;;;;;;;;;;2129270;27;20035;-44
2021/08/11 02:24:04;;;;;;;8.23;5.95;;;;;;;;;;2130967;27;20534;-44
2021/08/11 02:25:06;;;;;;;8.15;6.10;;;;;;;;;;2131475;27;20126;-44
2021/08/11 02:26:13;;;;;;;7.18;5.47;;;;;;;;;;2129263;27;20118;-44
2021/08/11 02:27:16;;;;;;;7.10;5.40;;;;;;;;;;2131116;27;20043;-46
2021/08/11 02:28:20;;;;;;;7.97;5.68;;;;;;;;;;2131522;27;20130;-48
2021/08/11 02:29:27;;;;;;;7.57;5.55;;;;;;;;;;2128974;27;20082;-45
2021/08/11 02:30:31;;;;;;;14.80;6.07;;;;;;;;;;2122860;28;20500;-45
2021/08/11 02:31:39;;;;;;;8.63;6.45;;;;;;;;;;2122683;27;20047;-46
2021/08/11 02:32:44;;;;;;;8.40;6.63;;;;;;;;;;2129761;27;20129;-47
2021/08/11 02:33:48;;;;;;;6.88;6.15;;;;;;;;;;2131403;27;20046;-44
2021/08/11 02:34:55;;;;;;;6.68;5.95;;;;;;;;;;2129382;27;20380;-46
2021/08/11 02:36:00;;;;;;;7.13;6.43;;;;;;;;;;2130369;27;20398;-48
2021/08/11 02:37:02;;;;;;;8.90;6.90;;;;;;;;;;2131526;27;20043;-47
2021/08/11 02:38:03;;;;;;;;;;;;;;;;;;2129433;27;20090;-46
2021/08/11 02:39:06;;;;;;;8.27;6.63;;;;;;;;;;2131190;27;19950;-46
2021/08/11 02:40:09;;;;;;;12.23;7.18;;;;;;;;;;2131368;27;20047;-44
2021/08/11 02:41:10;;;;;;;9.18;6.50;;;;;;;;;;2129123;27;20117;-45
2021/08/11 02:42:14;;;;;;;8.73;6.97;;;;;;;;;;2131085;27;20046;-45
2021/08/11 02:43:18;;;;;;;7.82;6.47;;;;;;;;;;2131443;27;20117;-44
2021/08/11 02:44:21;;;;;;;9.68;6.43;;;;;;;;;;2129041;27;20141;-45
2021/08/11 02:45:24;;;;;;;10.10;7.07;;;;;;;;;;2131238;27;20077;-44
2021/08/11 02:46:26;;;;;;;8.75;6.90;;;;;;;;;;2130841;27;20486;-44
2021/08/11 02:47:29;;;;;;;8.88;7.45;;;;;;;;;;2129134;27;20093;-45
2021/08/11 02:48:30;;;;;;;10.23;6.57;;;;;;;;;;2133156;27;20125;-45
2021/08/11 02:49:32;;;;;;;8.50;6.55;;;;;;;;;;2133044;27;20130;-44
2021/08/11 02:50:33;;;;;;;;;;;;;;;;;;2133763;27;20138;-45
2021/08/11 02:51:35;;;;;;;7.75;6.53;;;;;;;;;;2134198;27;20324;-44
2021/08/11 02:52:37;;;;;;;10.30;7.10;;;;;;;;;;2129732;27;20585;-44
2021/08/11 02:53:38;;;;;;;;;;;;;;;;;;2134132;27;20122;-44
2021/08/11 02:54:40;;;;;;;9.90;7.40;;;;;;;;;;2134294;27;19968;-43
2021/08/11 02:55:41;;;;;;;9.80;7.07;;;;;;;;;;2132173;27;20115;-43
2021/08/11 02:56:43;;;;;;;9.57;7.30;;;;;;;;;;2133759;27;20049;-43
2021/08/11 02:57:44;;;;;;;9.27;7.40;;;;;;;;;;2133935;27;20146;-43
2021/08/11 02:58:46;;;;;;;9.35;6.53;;;;;;;;;;2131906;27;20131;-43
2021/08/11 02:59:47;;;;;;;13.00;7.35;;;;;;;;;;2133892;27;20098;-43
2021/08/11 03:00:49;;;;;;;9.13;7.15;;;;;;;;;;2134063;27;20060;-43
2021/08/11 03:01:50;;;;;;;;;;;;;;;;;;2132296;27;20506;-45
2021/08/11 03:02:51;;;;;;;9.63;6.78;;;;;;;;;;2133743;27;19927;-45
2021/08/11 03:03:52;;;;;;;;;;;;;;;;;;2134623;27;20047;-44
2021/08/11 03:04:54;;;;;;;6.25;5.63;;;;;;;;;;2131608;27;19962;-45
2021/08/11 03:05:55;;;;;;;10.65;5.93;;;;;;;;;;2133975;27;20464;-44
2021/08/11 03:06:57;;;;;;;9.88;5.78;;;;;;;;;;2134222;27;20042;-44
2021/08/11 03:07:57;;;;;;;;;;;;;;;;;;2131964;27;20125;-44
2021/08/11 03:09:00;;;;;;;12.02;6.47;;;;;;;;;;2134143;27;19926;-45
2021/08/11 03:10:01;;;;;;;7.88;6.60;;;;;;;;;;2134078;27;20041;-43
2021/08/11 03:11:02;;;;;;;8.93;6.45;;;;;;;;;;2131210;27;20133;-43
2021/08/11 03:12:06;;;;;;;7.17;5.87;;;;;;;;;;2133210;27;20138;-45
2021/08/11 03:13:09;;;;;;;9.05;6.20;;;;;;;;;;2133070;27;20091;-43
2021/08/11 03:14:12;;;;;;;8.02;6.60;;;;;;;;;;2131961;27;20156;-43
2021/08/11 03:15:14;;;;;;;8.20;6.10;;;;;;;;;;2133938;27;20104;-43
2021/08/11 03:16:15;;;;;;;;;;;;;;;;;;2133011;27;20043;-45
2021/08/11 03:17:16;;;;;;;7.60;6.38;;;;;;;;;;2133075;27;20006;-44
2021/08/11 03:18:18;;;;;;;8.85;7.00;;;;;;;;;;2133916;27;20495;-44
2021/08/11 03:19:19;;;;;;;9.40;6.38;;;;;;;;;;2131986;27;20490;-44
2021/08/11 03:20:20;;;;;;;7.22;6.30;;;;;;;;;;2133567;27;20125;-43
2021/08/11 03:21:21;;;;;;;6.73;6.10;;;;;;;;;;2133877;27;20053;-44
2021/08/11 03:22:22;;;;;;;8.02;6.68;;;;;;;;;;2131813;27;20144;-44
2021/08/11 03:23:23;;;;;;;7.15;6.40;;;;;;;;;;2133653;27;20055;-42
2021/08/11 03:24:24;;;;;;;7.25;6.47;;;;;;;;;;2134097;27;20126;-43
2021/08/11 03:25:25;;;;;;;7.63;6.40;;;;;;;;;;2131952;27;20043;-44
2021/08/11 03:26:26;;;;;;;11.80;6.80;;;;;;;;;;2133732;27;20137;-44
2021/08/11 03:27:27;;;;;;;9.20;5.80;;;;;;;;;;2134039;27;20448;-43
2021/08/11 03:28:28;;;;;;;7.60;6.68;;;;;;;;;;2128577;27;20070;-44
2021/08/11 03:29:29;;;;;;;10.87;7.10;;;;;;;;;;2133876;27;20418;-43
2021/08/11 03:30:30;;;;;;;8.88;6.00;;;;;;;;;;2133922;27;20053;-43
2021/08/11 03:31:31;;;;;;;10.00;6.40;;;;;;;;;;2131724;27;20049;-43
2021/08/11 03:32:32;;;;;;;10.05;6.88;;;;;;;;;;2133752;27;20088;-43
2021/08/11 03:33:33;;;;;;;8.37;6.60;;;;;;;;;;2134068;27;20091;-46
2021/08/11 03:34:34;;;;;;;9.27;6.28;;;;;;;;;;2131609;27;20119;-44
2021/08/11 03:35:36;;;;;;;10.15;6.28;;;;;;;;;;2133883;27;20129;-44
2021/08/11 03:36:37;;;;;;;8.07;6.18;;;;;;;;;;2133953;27;20050;-46
2021/08/11 03:37:39;;;;;;;7.47;6.57;;;;;;;;;;2131472;27;20042;-43
2021/08/11 03:38:39;;;;;;;6.90;6.20;;;;;;;;;;2134014;27;20126;-44
2021/08/11 03:39:41;;;;;;;9.80;6.70;;;;;;;;;;2133942;27;20099;-43
2021/08/11 03:40:42;;;;;;;6.60;5.90;;;;;;;;;;2131430;27;20134;-43
2021/08/11 03:41:43;;;;;;;10.87;6.27;;;;;;;;;;2133810;27;20042;-44
2021/08/11 03:42:44;;;;;;;7.10;5.70;;;;;;;;;;2133414;27;20073;-44
2021/08/11 03:43:45;;;;;;;10.57;5.93;;;;;;;;;;2131764;27;20045;-43
2021/08/11 03:44:46;;;;;;;6.90;5.80;;;;;;;;;;2133916;27;20053;-44
2021/08/11 03:45:47;;;;;;;12.90;6.17;;;;;;;;;;2133532;27;20077;-44
2021/08/11 03:46:48;;;;;;;9.25;5.95;;;;;;;;;;2132050;27;20129;-44
2021/08/11 03:47:49;;;;;;;7.57;5.68;;;;;;;;;;2133775;27;20074;-45
2021/08/11 03:48:50;;;;;;;6.17;5.57;;;;;;;;;;2133024;27;20042;-44
2021/08/11 03:49:51;;;;;;;6.60;5.82;;;;;;;;;;2132497;27;20053;-44
2021/08/11 03:50:52;;;;;;;6.60;5.90;;;;;;;;;;2133978;27;20099;-44
2021/08/11 03:51:53;;;;;;;7.03;5.73;;;;;;;;;;2131925;27;20554;-43
2021/08/11 03:52:55;;;;;;;8.00;5.80;;;;;;;;;;2130219;27;20043;-44
2021/08/11 03:53:56;;;;;;;7.70;5.45;;;;;;;;;;2133954;27;20042;-43
2021/08/11 03:54:57;;;;;;;8.57;6.25;;;;;;;;;;2131853;27;20043;-44
2021/08/11 03:55:58;;;;;;;12.20;6.43;;;;;;;;;;2133353;27;20103;-43
2021/08/11 03:56:59;;;;;;;15.85;6.28;;;;;;;;;;2133849;27;20046;-46
2021/08/11 03:58:00;;;;;;;13.07;6.73;;;;;;;;;;2131760;27;20470;-43
2021/08/11 03:59:01;;;;;;;13.30;6.15;;;;;;;;;;2133460;27;20477;-45
2021/08/11 04:00:03;;;;;;;12.13;6.53;;;;;;;;;;2132153;27;20043;-44
2021/08/11 04:01:05;;;;;;;10.98;6.18;;;;;;;;;;2129989;27;20131;-45
2021/08/11 04:02:06;;;;;;;10.68;5.75;;;;;;;;;;2132161;27;20055;-44
2021/08/11 04:03:07;;;;;;;14.95;5.95;;;;;;;;;;2132259;27;20400;-45
2021/08/11 04:04:09;;;;;;;13.38;5.93;;;;;;;;;;2130199;27;20039;-44
2021/08/11 04:05:10;;;;;;;10.97;5.87;;;;;;;;;;2131169;27;20091;-45
2021/08/11 04:06:11;;;;;;;11.43;6.10;;;;;;;;;;2132308;27;20045;-45
2021/08/11 04:07:12;;;;;;;7.37;5.77;;;;;;;;;;2129918;27;20062;-44
2021/08/11 04:08:14;;;;;;;8.57;5.60;;;;;;;;;;2132234;27;20411;-45
2021/08/11 04:09:15;;;;;;;9.05;5.53;;;;;;;;;;2132310;27;20054;-45
2021/08/11 04:10:16;;;;;;;9.45;5.35;;;;;;;;;;2129949;27;20077;-44
2021/08/11 04:11:17;;;;;;;9.20;6.57;;;;;;;;;;2132325;27;20430;-45
2021/08/11 04:12:20;;;;;;;12.85;6.30;;;;;;;;;;2132266;27;20050;-46
2021/08/11 04:13:21;;;;;;;15.63;6.95;;;;;;;;;;2129531;27;20047;-47
2021/08/11 04:14:22;;;;;;;7.82;6.40;;;;;;;;;;2132372;27;20142;-47
2021/08/11 04:15:23;;;;;;;9.57;6.53;;;;;;;;;;2131598;27;20131;-44
2021/08/11 04:16:24;;;;;;;14.90;6.82;;;;;;;;;;2130226;27;20200;-45
2021/08/11 04:17:26;;;;;;;10.10;6.00;;;;;;;;;;2132253;27;20147;-44
2021/08/11 04:18:26;;;;;;;12.10;6.45;;;;;;;;;;2131893;27;20286;-44
2021/08/11 04:19:28;;;;;;;10.47;7.10;;;;;;;;;;2130513;27;20091;-44
2021/08/11 04:20:28;;;;;;;9.68;7.15;;;;;;;;;;2132423;27;20046;-43
2021/08/11 04:21:30;;;;;;;7.33;6.33;;;;;;;;;;2131053;27;20413;-43
2021/08/11 04:22:30;;;;;;;6.90;6.15;;;;;;;;;;2131257;27;20046;-43
2021/08/11 04:23:32;;;;;;;7.97;6.47;;;;;;;;;;2132389;27;20047;-44
2021/08/11 04:24:33;;;;;;;7.25;6.40;;;;;;;;;;2130095;27;20601;-44
2021/08/11 04:25:36;;;;;;;10.13;6.83;;;;;;;;;;2131871;27;20102;-44
2021/08/11 04:26:37;;;;;;;7.47;6.10;;;;;;;;;;2132214;27;20122;-45
2021/08/11 04:27:38;;;;;;;7.33;6.60;;;;;;;;;;2130119;27;20043;-44
2021/08/11 04:28:39;;;;;;;10.02;7.30;;;;;;;;;;2131902;27;20039;-45
2021/08/11 04:29:40;;;;;;;7.88;5.35;;;;;;;;;;2132427;27;20043;-44
2021/08/11 04:30:41;;;;;;;8.77;6.65;;;;;;;;;;2129966;27;20501;-44
2021/08/11 04:31:42;;;;;;;8.48;6.03;;;;;;;;;;2132012;27;20049;-45
2021/08/11 04:32:43;;;;;;;6.50;5.72;;;;;;;;;;2132085;27;20263;-44
2021/08/11 04:33:44;;;;;;;17.30;6.50;;;;;;;;;;2129890;27;20047;-45
2021/08/11 04:34:45;;;;;;;9.95;6.13;;;;;;;;;;2132272;27;20039;-42
2021/08/11 04:35:47;;;;;;;11.67;6.47;;;;;;;;;;2132092;27;20039;-41
2021/08/11 04:36:47;;;;;;;7.80;6.45;;;;;;;;;;2129982;27;20354;-41
2021/08/11 04:37:48;;;;;;;9.07;6.80;;;;;;;;;;2131923;27;20129;-42
2021/08/11 04:38:50;;;;;;;9.63;7.40;;;;;;;;;;2132235;27;20133;-42
2021/08/11 04:39:52;;;;;;;12.88;7.75;;;;;;;;;;2129742;27;20079;-41
2021/08/11 04:40:53;;;;;;;10.90;6.20;;;;;;;;;;2132150;27;20075;-42
2021/08/11 04:41:54;;;;;;;9.35;6.70;;;;;;;;;;2132060;27;20134;-42
2021/08/11 04:42:55;;;;;;;12.93;7.37;;;;;;;;;;2129636;27;20094;-41
2021/08/11 04:43:55;;;;;;;10.63;6.95;;;;;;;;;;2131863;27;20073;-42
2021/08/11 04:44:57;;;;;;;8.13;6.00;;;;;;;;;;2132011;27;20041;-41
2021/08/11 04:45:57;;;;;;;11.75;6.78;;;;;;;;;;2129534;27;20047;-41
2021/08/11 04:46:59;;;;;;;8.37;7.00;;;;;;;;;;2131848;27;20038;-42
2021/08/11 04:47:59;;;;;;;7.28;6.22;;;;;;;;;;2131491;27;20362;-42
2021/08/11 04:49:00;;;;;;;10.80;6.23;;;;;;;;;;2129945;27;20085;-42
2021/08/11 04:50:01;;;;;;;11.13;6.53;;;;;;;;;;2129138;27;20585;-43
2021/08/11 04:51:04;;;;;;;8.30;5.73;;;;;;;;;;2131538;27;20087;-42
2021/08/11 04:52:05;;;;;;;13.38;6.30;;;;;;;;;;2128979;27;20130;-42
2021/08/11 04:53:06;;;;;;;7.95;5.68;;;;;;;;;;2125541;27;20108;-42
2021/08/11 04:54:07;;;;;;;11.93;6.70;;;;;;;;;;2124412;27;20168;-42
2021/08/11 04:55:11;;;;;;;10.43;5.65;;;;;;;;;;2128546;27;20235;-42
2021/08/11 04:56:12;;;;;;;8.18;5.97;;;;;;;;;;2127238;27;20118;-42
2021/08/11 04:57:13;;;;;;;10.80;6.53;;;;;;;;;;2124551;27;20402;-42
2021/08/11 04:58:14;;;;;;;10.52;6.53;;;;;;;;;;2131102;27;20049;-42
2021/08/11 04:59:15;;;;;;;11.07;5.97;;;;;;;;;;2131846;27;20048;-42
2021/08/11 05:00:16;;;;;;;6.40;5.00;;;;;;;;;;2130069;27;20171;-42
2021/08/11 05:01:18;;;;;;;9.35;5.50;;;;;;;;;;2131675;27;20130;-42
2021/08/11 05:02:19;;;;;;;14.05;6.60;;;;;;;;;;2131792;27;20055;-43
2021/08/11 05:03:20;;;;;;;11.40;5.60;;;;;;;;;;2129921;27;20047;-42
2021/08/11 05:04:21;;;;;;;10.10;5.80;;;;;;;;;;2131831;27;20051;-42
2021/08/11 05:05:22;;;;;;;8.33;6.20;;;;;;;;;;2132111;27;20506;-42
2021/08/11 05:06:23;;;;;;;10.07;6.55;;;;;;;;;;2129686;27;20056;-43
2021/08/11 05:07:24;;;;;;;8.37;6.33;;;;;;;;;;2131695;27;20103;-42
2021/08/11 05:08:25;;;;;;;5.70;5.13;;;;;;;;;;2132057;27;20049;-43
2021/08/11 05:09:27;;;;;;;7.20;6.13;;;;;;;;;;2129635;27;20146;-43
2021/08/11 05:10:28;;;;;;;;;;;;;;;;;;2132448;27;20127;-42
2021/08/11 05:11:29;;;;;;;8.18;6.25;;;;;;;;;;2131186;27;20362;-42
2021/08/11 05:12:30;;;;;;;8.00;6.32;;;;;;;;;;2127549;27;20487;-42
2021/08/11 05:13:31;;;;;;;7.30;6.00;;;;;;;;;;2131802;27;20043;-42
2021/08/11 05:14:33;;;;;;;8.48;5.90;;;;;;;;;;2131958;27;20125;-43
2021/08/11 05:15:34;;;;;;;;;;;;;;;;;;2129968;27;20073;-41
2021/08/11 05:16:35;;;;;;;11.52;6.50;;;;;;;;;;2132008;27;20363;-42
2021/08/11 05:17:36;;;;;;;19.45;6.30;;;;;;;;;;2131736;27;20447;-42
2021/08/11 05:18:37;;;;;;;9.00;5.35;;;;;;;;;;2129472;27;20056;-42
2021/08/11 05:19:38;;;;;;;10.15;6.25;;;;;;;;;;2131970;27;20042;-42
2021/08/11 05:20:39;;;;;;;6.60;5.90;;;;;;;;;;2131182;27;20507;-42
2021/08/11 05:21:40;;;;;;;8.30;6.00;;;;;;;;;;2129804;27;20134;-42
2021/08/11 05:22:41;;;;;;;9.13;6.27;;;;;;;;;;2131813;27;20043;-41
2021/08/11 05:23:42;;;;;;;7.60;5.93;;;;;;;;;;2131557;27;20311;-42
2021/08/11 05:24:43;;;;;;;12.77;6.30;;;;;;;;;;2129903;27;20483;-42
2021/08/11 05:25:45;;;;;;;;;;;;;;;;;;2132399;27;20183;-42
2021/08/11 05:26:46;;;;;;;9.43;6.50;;;;;;;;;;2130526;27;19962;-41
2021/08/11 05:27:47;;;;;;;7.95;6.20;;;;;;;;;;2130861;27;20358;-42
2021/08/11 05:28:48;;;;;;;16.73;6.43;;;;;;;;;;2131856;27;20495;-42
2021/08/11 05:29:50;;;;;;;12.13;6.22;;;;;;;;;;2129954;27;20138;-42
2021/08/11 05:30:50;;;;;;;10.63;6.60;;;;;;;;;;2131208;27;20451;-41
2021/08/11 05:31:52;;;;;;;11.55;7.20;;;;;;;;;;2131644;27;20233;-43
2021/08/11 05:32:52;;;;;;;7.65;5.80;;;;;;;;;;2129689;27;20045;-44
2021/08/11 05:33:54;;;;;;;21.45;5.85;;;;;;;;;;2130446;27;20047;-42
2021/08/11 05:34:55;;;;;;;9.38;6.53;;;;;;;;;;2131892;27;20125;-41
2021/08/11 05:35:56;;;;;;;13.07;7.37;;;;;;;;;;2129674;27;20392;-44
2021/08/11 05:36:57;;;;;;;7.20;5.53;;;;;;;;;;2131382;27;20598;-42
2021/08/11 05:37:58;;;;;;;11.27;6.30;;;;;;;;;;2131663;27;20250;-42
2021/08/11 05:38:59;;;;;;;16.25;6.35;;;;;;;;;;2129569;27;20154;-41
2021/08/11 05:40:01;;;;;;;5.90;5.20;;;;;;;;;;2131677;27;20082;-42
2021/08/11 05:41:02;;;;;;;;;;;;;;;;;;2132135;27;20125;-42
2021/08/11 05:42:06;;;;;;;11.95;5.80;;;;;;;;;;2129196;27;20385;-42
2021/08/11 05:43:07;;;;;;;10.65;6.22;;;;;;;;;;2131482;27;20137;-42
2021/08/11 05:44:08;;;;;;;11.33;6.83;;;;;;;;;;2131653;27;20046;-42
2021/08/11 05:45:10;;;;;;;8.68;6.30;;;;;;;;;;2129356;27;20091;-42
2021/08/11 05:46:11;;;;;;;9.95;6.13;;;;;;;;;;2123266;28;20118;-42
2021/08/11 05:47:12;;;;;;;13.00;6.55;;;;;;;;;;2123083;28;20039;-42
2021/08/11 05:48:13;;;;;;;11.43;6.63;;;;;;;;;;2128146;27;20053;-41
2021/08/11 05:49:14;;;;;;;9.43;5.93;;;;;;;;;;2131678;27;20126;-41
2021/08/11 05:50:15;;;;;;;10.07;6.30;;;;;;;;;;2131893;27;20042;-41
2021/08/11 05:51:16;;;;;;;8.52;6.50;;;;;;;;;;2128411;27;20042;-43
2021/08/11 05:52:17;;;;;;;7.50;5.40;;;;;;;;;;2128779;27;20054;-44
2021/08/11 05:53:18;;;;;;;10.67;6.27;;;;;;;;;;2123504;27;20403;-43
2021/08/11 05:54:20;;;;;;;12.38;6.28;;;;;;;;;;2129548;27;20138;-43
2021/08/11 05:55:22;;;;;;;19.58;6.03;;;;;;;;;;2131707;27;20047;-43
2021/08/11 05:56:24;;;;;;;;;;;;;;;;;;2131326;27;20490;-43
2021/08/11 05:57:25;;;;;;;6.15;5.03;;;;;;;;;;2130040;27;19997;-43
2021/08/11 05:58:27;;;;;;;9.55;6.10;;;;;;;;;;2131629;27;20070;-44
2021/08/11 05:59:28;;;;;;;6.25;5.40;;;;;;;;;;2128293;27;20183;-43
2021/08/11 06:00:29;;;;;;;9.65;6.32;;;;;;;;;;2131057;27;20483;-44
2021/08/11 06:01:30;;;;;;;8.35;5.18;;;;;;;;;;2131761;27;20046;-43
2021/08/11 06:02:32;;;;;;;11.18;5.47;;;;;;;;;;2129577;27;20107;-44
2021/08/11 06:03:34;;;;;;;6.35;5.03;;;;;;;;;;2129297;27;20064;-44
2021/08/11 06:04:35;;;;;;;15.35;8.00;;;;;;;;;;2131339;27;20520;-47
2021/08/11 06:05:37;;;;;;;7.60;5.30;;;;;;;;;;2129071;27;20134;-44
2021/08/11 06:06:37;;;;;;;10.63;6.15;;;;;;;;;;2131112;27;20047;-43
2021/08/11 06:07:39;;;;;;;9.20;5.93;;;;;;;;;;2131490;27;20042;-44
2021/08/11 06:08:40;;;;;;;10.32;5.63;;;;;;;;;;2128898;27;20099;-44
2021/08/11 06:09:41;;;;;;;7.07;5.55;;;;;;;;;;2131086;27;20544;-44